Lincoln City, OR (97367)

6:59 AM PDT on May 25, 2017 (GMT -0700)
Taft | | Change Station

Elev 36 ft 44.93 °N, 124.02 °W | Updated 11 seconds ago

Mostly Cloudy
Mostly Cloudy
45.5 °F
Feels Like 46 °F
N
0.0
Wind Variable Wind from ESE

Today
High -- | Low -- °F
--% Chance of Precip.
Yesterday
High -- | Low -- °F
Precip. -- in
Pressure 29.94 in
Visibility 5.0 miles
Clouds Mostly Cloudy 4000 ft
Windchill 46 °F
Dew Point 42 °F
Humidity 86%
Rainfall 0.00 in
Snow Depth Not available.
5:37 AM 8:49 PM
Waning Crescent, 0% visible
METAR KONP 251335Z AUTO 00000KT 5SM BR BKN040 08/07 A2994 RMK AO2
Pressure 29.94 in
Visibility 5.0 miles
Clouds Mostly Cloudy 4000 ft
Windchill 46 °F
Dew Point 42 °F
Humidity 86%
Rainfall 0.00 in
Snow Depth Not available.
5:37 AM 8:49 PM
Waning Crescent, 0% visible
METAR KONP 251335Z AUTO 00000KT 5SM BR BKN040 08/07 A2994 RMK AO2

Get Severe Weather Alerts

Thanks for signing up!

Be on the lookout for a verification email in your inbox.

You'll start receiving the daily forecast at 6 AM.

×

10-Day Weather Forecast

Almanac

Astronomy

May. 25, 2017 Rise Set
Actual Time
Civil Twilight
Nautical Twilight
Astronomical Twilight
Moon
Length of Visible Light
Length of Day
Tomorrow will be .
, % of the Moon is Illuminated

Today's Extremes

State Highs State Lows

Community

WunderPhotos

Category 6

Welcome to Category 6. This is the collective home for Weather Underground's featured writeups by Dr. Jeff Masters (right), Bob Henson (left), Chris Burt, and other regular contributors.

Nearby

Air Quality

  Air Quality AQ Index Pollutant
Not available.

Snow Depth

Station Depth Elevation

Earthquake Activity

City Distance Mag. Time & Date
Minimum magnitude displayed is 2.5.

Coastal Water Temperatures

Place Temperature

Stations

Nearby Weather Stations

Station Location Temp. Windchill Dew Point Humidity Wind Precip. Elev Updated Type
                   

Watches & Warnings

There are currently no watches in effect.